Weather at Lake Ridge Aero Park Airport

Public forecast

Using degrees Fahrenheit for public forecast. Weather courtesy of forecast.io.

Closest aviation weather report (METAR) to Lake Ridge Aero Park Airport

Closest report is Raleigh Durham International Airport, 11.0 nm (20.3 km) S.

2024/06/13 21:51 (retrieved 35 minutes ago)

KRDU 132151Z 16008KT 10SM FEW055 FEW090 BKN250 31/17 A2999 RMK AO2 SLP149 T03110167

Closest aviation forecast (TAF) to Lake Ridge Aero Park Airport

Closest forecast is Raleigh Durham International Airport, 11.0 nm (20.3 km) S.

2024/06/13 18:22 (retrieved 4 hours ago)

TAF KRDU 131720Z 1318/1418 VRB04KT P6SM SCT050 SCT250 FM141400 26005KT P6SM FEW060